West Pittsburg, Pennsylvania
Current Conditions -  °F | °C
As of 4:15 PM on Monday 22 Dec 2014 (Local Time) from KBTP Reporting Station
Clear Clear  
Wind Chill: 34°   Ceiling: Unl
Heat Index: 39°   Visibility: 10mi
Dew Point: 28°   Wind: 7mph
Humidity: 65%   Direction: 80°E
Pressure: 30.01"   Gusts: NA
Location:  40.93°N, 80.36°W
Report Text: KBTP 222115Z AUTO 08006KT 10SM CLR 04/M02 A3001 RMK AO1
Loading
Personal Weather Stations






























Interactive Weather Map New forecast layout! Learn more

10-Day Weather Forecast

Advertisements
Track Severe Weather on mobile